sensor_id;sensor_type;location;lat;lon;timestamp;pressure;altitude;pressure_sealevel;temperature;humidity
14117;BME280;7137;51.436;6.544;2023-05-01T00:01:09;101327.78;;;12.87;67.70
14117;BME280;7137;51.436;6.544;2023-05-01T00:04:12;101316.66;;;12.78;67.70
14117;BME280;7137;51.436;6.544;2023-05-01T00:07:14;101317.03;;;12.66;69.62
14117;BME280;7137;51.436;6.544;2023-05-01T00:10:16;101312.00;;;12.60;71.08
14117;BME280;7137;51.436;6.544;2023-05-01T00:13:19;101312.25;;;12.51;71.38
14117;BME280;7137;51.436;6.544;2023-05-01T00:16:23;101310.59;;;12.48;72.38
14117;BME280;7137;51.436;6.544;2023-05-01T00:19:26;101304.03;;;12.34;72.61
14117;BME280;7137;51.436;6.544;2023-05-01T00:22:27;101301.38;;;12.35;72.83
14117;BME280;7137;51.436;6.544;2023-05-01T00:25:29;101302.53;;;12.27;73.54
14117;BME280;7137;51.436;6.544;2023-05-01T00:28:31;101298.34;;;12.19;73.49
14117;BME280;7137;51.436;6.544;2023-05-01T00:31:33;101292.34;;;12.16;73.41
14117;BME280;7137;51.436;6.544;2023-05-01T00:34:36;101291.63;;;12.11;73.44
14117;BME280;7137;51.436;6.544;2023-05-01T00:37:37;101295.41;;;12.01;74.87
14117;BME280;7137;51.436;6.544;2023-05-01T00:40:42;101291.84;;;12.03;74.33
14117;BME280;7137;51.436;6.544;2023-05-01T00:43:44;101282.50;;;11.93;74.60
14117;BME280;7137;51.436;6.544;2023-05-01T00:46:45;101277.19;;;11.96;74.50
14117;BME280;7137;51.436;6.544;2023-05-01T00:49:49;101278.41;;;11.84;75.17
14117;BME280;7137;51.436;6.544;2023-05-01T00:52:51;101269.09;;;11.73;75.94
14117;BME280;7137;51.436;6.544;2023-05-01T00:55:54;101262.97;;;11.74;75.78
14117;BME280;7137;51.436;6.544;2023-05-01T00:58:58;101267.56;;;11.64;76.12
14117;BME280;7137;51.436;6.544;2023-05-01T01:02:00;101254.63;;;11.59;76.95
14117;BME280;7137;51.436;6.544;2023-05-01T01:05:03;101250.88;;;11.70;76.30
14117;BME280;7137;51.436;6.544;2023-05-01T01:08:11;101248.63;;;11.56;76.80
14117;BME280;7137;51.436;6.544;2023-05-01T01:11:19;101247.06;;;11.49;77.48
14117;BME280;7137;51.436;6.544;2023-05-01T01:14:27;101237.94;;;11.31;78.49
14117;BME280;7137;51.436;6.544;2023-05-01T01:17:37;101238.66;;;11.36;78.19
14117;BME280;7137;51.436;6.544;2023-05-01T01:20:49;101236.19;;;11.32;78.90
14117;BME280;7137;51.436;6.544;2023-05-01T01:24:20;101225.72;;;11.32;78.71
14117;BME280;7137;51.436;6.544;2023-05-01T01:27:48;101221.22;;;11.37;77.69
14117;BME280;7137;51.436;6.544;2023-05-01T01:31:16;101221.63;;;11.21;78.60
14117;BME280;7137;51.436;6.544;2023-05-01T01:34:24;101224.63;;;11.06;80.77
14117;BME280;7137;51.436;6.544;2023-05-01T01:37:39;101221.03;;;11.10;80.56
14117;BME280;7137;51.436;6.544;2023-05-01T01:40:46;101218.50;;;11.40;78.55
14117;BME280;7137;51.436;6.544;2023-05-01T01:43:55;101211.41;;;11.45;79.21
14117;BME280;7137;51.436;6.544;2023-05-01T01:47:01;101207.63;;;11.56;78.40
14117;BME280;7137;51.436;6.544;2023-05-01T01:50:09;101213.84;;;11.51;79.00
14117;BME280;7137;51.436;6.544;2023-05-01T01:53:13;101208.47;;;11.57;79.04
14117;BME280;7137;51.436;6.544;2023-05-01T01:56:17;101198.06;;;11.54;79.67
14117;BME280;7137;51.436;6.544;2023-05-01T01:59:22;101199.50;;;11.66;79.06
14117;BME280;7137;51.436;6.544;2023-05-01T02:02:24;101187.81;;;11.79;77.40
14117;BME280;7137;51.436;6.544;2023-05-01T02:05:30;101186.25;;;11.72;77.85
14117;BME280;7137;51.436;6.544;2023-05-01T02:08:33;101188.88;;;11.72;78.34
14117;BME280;7137;51.436;6.544;2023-05-01T02:11:36;101182.47;;;11.83;78.08
14117;BME280;7137;51.436;6.544;2023-05-01T02:14:40;101181.34;;;11.91;76.52
14117;BME280;7137;51.436;6.544;2023-05-01T02:17:42;101178.94;;;11.84;76.53
14117;BME280;7137;51.436;6.544;2023-05-01T02:20:46;101173.50;;;11.91;76.93
14117;BME280;7137;51.436;6.544;2023-05-01T02:23:47;101169.38;;;11.83;77.72
14117;BME280;7137;51.436;6.544;2023-05-01T02:26:53;101171.00;;;11.87;77.56
14117;BME280;7137;51.436;6.544;2023-05-01T02:29:57;101163.34;;;11.80;77.22
14117;BME280;7137;51.436;6.544;2023-05-01T02:32:58;101158.28;;;11.74;78.04
14117;BME280;7137;51.436;6.544;2023-05-01T02:36:01;101161.44;;;11.54;78.98
14117;BME280;7137;51.436;6.544;2023-05-01T02:39:04;101150.97;;;11.55;78.76
14117;BME280;7137;51.436;6.544;2023-05-01T02:42:07;101146.38;;;11.62;78.82
14117;BME280;7137;51.436;6.544;2023-05-01T02:45:17;101141.41;;;11.53;79.35
14117;BME280;7137;51.436;6.544;2023-05-01T02:48:21;101139.75;;;11.50;79.35
14117;BME280;7137;51.436;6.544;2023-05-01T02:51:25;101129.66;;;11.37;80.61
14117;BME280;7137;51.436;6.544;2023-05-01T02:54:28;101137.59;;;11.34;80.49
14117;BME280;7137;51.436;6.544;2023-05-01T02:57:31;101129.97;;;11.26;80.82
14117;BME280;7137;51.436;6.544;2023-05-01T03:00:33;101129.38;;;11.16;81.61
14117;BME280;7137;51.436;6.544;2023-05-01T03:03:35;101131.03;;;11.19;82.64
14117;BME280;7137;51.436;6.544;2023-05-01T03:06:38;101120.75;;;11.13;82.49
14117;BME280;7137;51.436;6.544;2023-05-01T03:09:40;101118.97;;;11.15;83.07
14117;BME280;7137;51.436;6.544;2023-05-01T03:12:41;101119.97;;;11.09;83.35
14117;BME280;7137;51.436;6.544;2023-05-01T03:15:43;101117.03;;;11.21;82.37
14117;BME280;7137;51.436;6.544;2023-05-01T03:18:45;101104.25;;;11.11;81.95
14117;BME280;7137;51.436;6.544;2023-05-01T03:21:50;101095.13;;;10.93;83.58
14117;BME280;7137;51.436;6.544;2023-05-01T03:24:51;101097.84;;;10.90;84.33
14117;BME280;7137;51.436;6.544;2023-05-01T03:27:53;101091.81;;;10.88;84.30
14117;BME280;7137;51.436;6.544;2023-05-01T03:30:54;101094.41;;;10.88;84.26
14117;BME280;7137;51.436;6.544;2023-05-01T03:33:56;101089.59;;;10.73;84.02
14117;BME280;7137;51.436;6.544;2023-05-01T03:36:59;101085.81;;;10.83;84.71
14117;BME280;7137;51.436;6.544;2023-05-01T03:40:01;101081.75;;;10.73;84.98
14117;BME280;7137;51.436;6.544;2023-05-01T03:43:02;101077.50;;;10.68;84.75
14117;BME280;7137;51.436;6.544;2023-05-01T03:46:04;101076.94;;;10.57;86.12
14117;BME280;7137;51.436;6.544;2023-05-01T03:49:06;101073.47;;;10.57;84.92
14117;BME280;7137;51.436;6.544;2023-05-01T03:52:09;101073.78;;;10.45;85.74
14117;BME280;7137;51.436;6.544;2023-05-01T03:55:11;101072.78;;;10.49;85.54
14117;BME280;7137;51.436;6.544;2023-05-01T03:58:13;101065.84;;;10.48;85.09
14117;BME280;7137;51.436;6.544;2023-05-01T04:01:15;101066.72;;;10.48;85.25
14117;BME280;7137;51.436;6.544;2023-05-01T04:04:16;101062.38;;;10.47;86.03
14117;BME280;7137;51.436;6.544;2023-05-01T04:07:19;101064.22;;;10.44;86.28
14117;BME280;7137;51.436;6.544;2023-05-01T04:10:21;101064.28;;;10.42;85.68
14117;BME280;7137;51.436;6.544;2023-05-01T04:13:23;101060.28;;;10.26;86.70
14117;BME280;7137;51.436;6.544;2023-05-01T04:16:24;101053.81;;;10.42;86.40
14117;BME280;7137;51.436;6.544;2023-05-01T04:19:26;101062.53;;;10.41;87.14
14117;BME280;7137;51.436;6.544;2023-05-01T04:22:29;101060.59;;;10.49;86.87
14117;BME280;7137;51.436;6.544;2023-05-01T04:25:30;101066.31;;;10.63;85.60
14117;BME280;7137;51.436;6.544;2023-05-01T04:28:32;101062.66;;;10.69;86.50
14117;BME280;7137;51.436;6.544;2023-05-01T04:31:33;101058.13;;;10.77;85.82
14117;BME280;7137;51.436;6.544;2023-05-01T04:34:35;101054.56;;;10.80;85.24
14117;BME280;7137;51.436;6.544;2023-05-01T04:37:38;101053.56;;;10.85;85.06
14117;BME280;7137;51.436;6.544;2023-05-01T04:40:39;101051.53;;;10.95;85.95
14117;BME280;7137;51.436;6.544;2023-05-01T04:43:41;101046.75;;;11.09;85.10
14117;BME280;7137;51.436;6.544;2023-05-01T04:46:42;101051.66;;;11.21;84.01
14117;BME280;7137;51.436;6.544;2023-05-01T04:49:44;101053.00;;;11.35;83.79
14117;BME280;7137;51.436;6.544;2023-05-01T04:52:47;101058.75;;;11.47;83.12
14117;BME280;7137;51.436;6.544;2023-05-01T04:55:49;101062.66;;;11.62;81.77
14117;BME280;7137;51.436;6.544;2023-05-01T04:58:50;101068.22;;;11.81;82.70
14117;BME280;7137;51.436;6.544;2023-05-01T05:01:52;101065.16;;;11.95;80.83
14117;BME280;7137;51.436;6.544;2023-05-01T05:04:53;101070.81;;;12.09;78.13
14117;BME280;7137;51.436;6.544;2023-05-01T05:07:56;101067.34;;;12.08;78.25
14117;BME280;7137;51.436;6.544;2023-05-01T05:10:58;101066.50;;;12.08;78.83
14117;BME280;7137;51.436;6.544;2023-05-01T05:14:00;101070.66;;;12.15;77.52
14117;BME280;7137;51.436;6.544;2023-05-01T05:17:01;101071.09;;;12.28;78.56
14117;BME280;7137;51.436;6.544;2023-05-01T05:20:04;101082.28;;;12.33;76.85
14117;BME280;7137;51.436;6.544;2023-05-01T05:23:07;101072.31;;;12.44;77.09
14117;BME280;7137;51.436;6.544;2023-05-01T05:26:09;101079.47;;;12.39;77.24
14117;BME280;7137;51.436;6.544;2023-05-01T05:29:10;101074.25;;;12.37;75.69
14117;BME280;7137;51.436;6.544;2023-05-01T05:32:12;101070.31;;;12.51;77.31
14117;BME280;7137;51.436;6.544;2023-05-01T05:35:14;101075.16;;;12.88;74.85
14117;BME280;7137;51.436;6.544;2023-05-01T05:38:17;101076.16;;;13.08;72.75
14117;BME280;7137;51.436;6.544;2023-05-01T05:45:15;101072.59;;;13.81;71.72
14117;BME280;7137;51.436;6.544;2023-05-01T05:48:16;101068.69;;;14.13;71.05
14117;BME280;7137;51.436;6.544;2023-05-01T05:51:18;101068.31;;;14.44;69.31
14117;BME280;7137;51.436;6.544;2023-05-01T05:54:21;101066.91;;;14.78;69.19
14117;BME280;7137;51.436;6.544;2023-05-01T05:57:22;101065.97;;;15.18;66.89
14117;BME280;7137;51.436;6.544;2023-05-01T06:00:24;101075.16;;;15.67;66.44
14117;BME280;7137;51.436;6.544;2023-05-01T06:03:25;101070.47;;;16.10;64.47
14117;BME280;7137;51.436;6.544;2023-05-01T06:06:27;101068.34;;;16.36;61.37
14117;BME280;7137;51.436;6.544;2023-05-01T06:09:30;101063.38;;;16.64;60.67
14117;BME280;7137;51.436;6.544;2023-05-01T06:12:32;101063.38;;;16.99;59.89
14117;BME280;7137;51.436;6.544;2023-05-01T06:15:34;101070.63;;;17.11;59.29
14117;BME280;7137;51.436;6.544;2023-05-01T06:18:35;101071.25;;;17.16;57.98
14117;BME280;7137;51.436;6.544;2023-05-01T06:21:37;101063.41;;;17.47;57.00
14117;BME280;7137;51.436;6.544;2023-05-01T06:24:39;101070.16;;;17.69;55.95
14117;BME280;7137;51.436;6.544;2023-05-01T06:27:41;101060.84;;;17.62;56.17
14117;BME280;7137;51.436;6.544;2023-05-01T06:30:42;101068.50;;;17.66;56.58
14117;BME280;7137;51.436;6.544;2023-05-01T06:33:44;101063.41;;;17.47;55.97
14117;BME280;7137;51.436;6.544;2023-05-01T06:36:45;101063.31;;;17.49;55.92
14117;BME280;7137;51.436;6.544;2023-05-01T06:39:48;101063.41;;;17.63;56.74
14117;BME280;7137;51.436;6.544;2023-05-01T06:42:50;101056.09;;;17.84;56.02
14117;BME280;7137;51.436;6.544;2023-05-01T06:45:51;101067.97;;;17.77;55.50
14117;BME280;7137;51.436;6.544;2023-05-01T06:48:52;101057.28;;;17.94;55.24
14117;BME280;7137;51.436;6.544;2023-05-01T06:51:54;101058.31;;;18.67;53.48
14117;BME280;7137;51.436;6.544;2023-05-01T06:54:57;101057.06;;;19.03;53.58
14117;BME280;7137;51.436;6.544;2023-05-01T06:57:58;101057.25;;;19.43;51.24
14117;BME280;7137;51.436;6.544;2023-05-01T07:01:00;101053.72;;;19.14;50.77
14117;BME280;7137;51.436;6.544;2023-05-01T07:04:01;101056.09;;;19.33;51.37
14117;BME280;7137;51.436;6.544;2023-05-01T07:07:03;101051.38;;;19.93;51.10
14117;BME280;7137;51.436;6.544;2023-05-01T07:10:07;101061.59;;;20.39;50.07
14117;BME280;7137;51.436;6.544;2023-05-01T07:13:08;101051.59;;;21.08;49.01
14117;BME280;7137;51.436;6.544;2023-05-01T07:16:10;101049.28;;;21.41;47.70
14117;BME280;7137;51.436;6.544;2023-05-01T07:19:11;101054.56;;;22.38;45.02
14117;BME280;7137;51.436;6.544;2023-05-01T07:22:13;101057.16;;;23.08;43.10
14117;BME280;7137;51.436;6.544;2023-05-01T07:25:16;101064.69;;;24.35;40.56
14117;BME280;7137;51.436;6.544;2023-05-01T07:28:17;101061.53;;;24.62;38.98
14117;BME280;7137;51.436;6.544;2023-05-01T07:31:19;101058.09;;;23.52;40.73
14117;BME280;7137;51.436;6.544;2023-05-01T07:34:21;101062.69;;;23.50;40.19
14117;BME280;7137;51.436;6.544;2023-05-01T07:37:23;101060.16;;;23.60;39.61
14117;BME280;7137;51.436;6.544;2023-05-01T07:40:27;101056.78;;;24.01;37.71
14117;BME280;7137;51.436;6.544;2023-05-01T07:43:29;101065.16;;;24.08;37.35
14117;BME280;7137;51.436;6.544;2023-05-01T07:46:30;101059.00;;;24.28;39.24
14117;BME280;7137;51.436;6.544;2023-05-01T07:49:35;101058.59;;;24.44;36.70
14117;BME280;7137;51.436;6.544;2023-05-01T07:52:37;101057.19;;;24.28;36.41
14117;BME280;7137;51.436;6.544;2023-05-01T07:55:40;101059.81;;;25.33;37.40
14117;BME280;7137;51.436;6.544;2023-05-01T07:58:42;101053.38;;;24.63;36.27
14117;BME280;7137;51.436;6.544;2023-05-01T08:01:43;101048.91;;;26.05;36.70
14117;BME280;7137;51.436;6.544;2023-05-01T08:04:45;101046.78;;;26.57;34.96
14117;BME280;7137;51.436;6.544;2023-05-01T08:07:48;101047.16;;;27.83;32.77
14117;BME280;7137;51.436;6.544;2023-05-01T08:10:51;101048.78;;;28.12;31.18
14117;BME280;7137;51.436;6.544;2023-05-01T08:13:53;101053.09;;;27.59;31.70
14117;BME280;7137;51.436;6.544;2023-05-01T08:16:54;101052.09;;;27.33;31.92
14117;BME280;7137;51.436;6.544;2023-05-01T08:19:56;101043.19;;;26.85;32.40
14117;BME280;7137;51.436;6.544;2023-05-01T08:22:57;101047.09;;;27.10;32.78
14117;BME280;7137;51.436;6.544;2023-05-01T08:26:00;101043.47;;;27.29;33.65
14117;BME280;7137;51.436;6.544;2023-05-01T08:29:02;101042.47;;;27.58;33.00
14117;BME280;7137;51.436;6.544;2023-05-01T08:32:03;101037.19;;;28.11;31.74
14117;BME280;7137;51.436;6.544;2023-05-01T08:35:05;101042.31;;;27.69;32.63
14117;BME280;7137;51.436;6.544;2023-05-01T08:38:07;101040.06;;;27.37;34.48
14117;BME280;7137;51.436;6.544;2023-05-01T08:41:14;101031.84;;;26.45;35.48
14117;BME280;7137;51.436;6.544;2023-05-01T08:44:16;101037.63;;;25.42;36.11
14117;BME280;7137;51.436;6.544;2023-05-01T08:47:19;101030.59;;;26.49;35.32
14117;BME280;7137;51.436;6.544;2023-05-01T08:50:22;101033.06;;;26.79;33.97
14117;BME280;7137;51.436;6.544;2023-05-01T08:53:26;101043.34;;;26.84;35.75
14117;BME280;7137;51.436;6.544;2023-05-01T08:56:30;101036.38;;;26.54;34.69
14117;BME280;7137;51.436;6.544;2023-05-01T08:59:33;101032.88;;;25.15;35.82
14117;BME280;7137;51.436;6.544;2023-05-01T09:02:35;101041.28;;;24.38;38.02
14117;BME280;7137;51.436;6.544;2023-05-01T09:05:38;101031.53;;;24.05;37.69
14117;BME280;7137;51.436;6.544;2023-05-01T09:08:40;101027.69;;;23.66;39.83
14117;BME280;7137;51.436;6.544;2023-05-01T09:11:44;101027.66;;;23.55;38.06
14117;BME280;7137;51.436;6.544;2023-05-01T09:14:45;101030.94;;;24.75;38.57
14117;BME280;7137;51.436;6.544;2023-05-01T09:17:47;101030.88;;;24.86;37.72
14117;BME280;7137;51.436;6.544;2023-05-01T09:20:48;101018.84;;;23.97;36.80
14117;BME280;7137;51.436;6.544;2023-05-01T09:23:50;101031.84;;;25.46;36.35
14117;BME280;7137;51.436;6.544;2023-05-01T09:26:54;101026.34;;;25.88;35.26
14117;BME280;7137;51.436;6.544;2023-05-01T09:29:57;101032.78;;;25.26;36.08
14117;BME280;7137;51.436;6.544;2023-05-01T09:33:06;101021.56;;;25.02;37.00
14117;BME280;7137;51.436;6.544;2023-05-01T09:36:07;101029.25;;;24.95;36.91
14117;BME280;7137;51.436;6.544;2023-05-01T09:39:21;101033.88;;;25.64;36.60
14117;BME280;7137;51.436;6.544;2023-05-01T09:42:24;101028.19;;;26.07;34.89
14117;BME280;7137;51.436;6.544;2023-05-01T09:45:25;101024.22;;;25.32;37.47
14117;BME280;7137;51.436;6.544;2023-05-01T09:48:27;101019.44;;;25.86;36.58
14117;BME280;7137;51.436;6.544;2023-05-01T09:51:30;101027.88;;;25.71;35.69
14117;BME280;7137;51.436;6.544;2023-05-01T09:54:32;101019.19;;;26.37;34.08
14117;BME280;7137;51.436;6.544;2023-05-01T09:57:35;101024.47;;;27.23;33.50
14117;BME280;7137;51.436;6.544;2023-05-01T10:00:46;101026.78;;;26.22;35.18
14117;BME280;7137;51.436;6.544;2023-05-01T10:03:52;101023.53;;;25.80;35.94
14117;BME280;7137;51.436;6.544;2023-05-01T10:06:54;101024.72;;;25.66;37.71
14117;BME280;7137;51.436;6.544;2023-05-01T10:09:55;101021.00;;;25.38;35.93
14117;BME280;7137;51.436;6.544;2023-05-01T10:13:11;101021.03;;;25.08;36.27
14117;BME280;7137;51.436;6.544;2023-05-01T10:16:29;101014.44;;;24.40;39.01
14117;BME280;7137;51.436;6.544;2023-05-01T10:19:31;101017.00;;;23.44;40.33
14117;BME280;7137;51.436;6.544;2023-05-01T10:22:32;101023.69;;;23.38;41.04
14117;BME280;7137;51.436;6.544;2023-05-01T10:25:35;101027.84;;;24.17;39.16
14117;BME280;7137;51.436;6.544;2023-05-01T10:28:39;101025.59;;;24.96;40.35
14117;BME280;7137;51.436;6.544;2023-05-01T10:31:40;101022.72;;;24.25;39.08
14117;BME280;7137;51.436;6.544;2023-05-01T10:34:46;101016.47;;;25.98;36.46
14117;BME280;7137;51.436;6.544;2023-05-01T10:37:57;101017.81;;;25.14;37.56
14117;BME280;7137;51.436;6.544;2023-05-01T10:41:00;101014.94;;;24.34;39.21
14117;BME280;7137;51.436;6.544;2023-05-01T10:44:21;101004.25;;;23.69;41.77
14117;BME280;7137;51.436;6.544;2023-05-01T10:47:44;101009.84;;;23.55;41.38
14117;BME280;7137;51.436;6.544;2023-05-01T10:51:08;101009.00;;;23.66;43.45
14117;BME280;7137;51.436;6.544;2023-05-01T10:54:23;101001.56;;;24.34;41.16
14117;BME280;7137;51.436;6.544;2023-05-01T10:57:40;101006.06;;;24.33;41.59
14117;BME280;7137;51.436;6.544;2023-05-01T11:04:47;101002.91;;;23.64;43.07
14117;BME280;7137;51.436;6.544;2023-05-01T11:08:29;100988.75;;;23.52;44.17
14117;BME280;7137;51.436;6.544;2023-05-01T11:11:46;100987.53;;;24.20;42.58
14117;BME280;7137;51.436;6.544;2023-05-01T11:15:03;100983.72;;;23.81;42.89
14117;BME280;7137;51.436;6.544;2023-05-01T11:18:07;100985.63;;;24.64;42.42
14117;BME280;7137;51.436;6.544;2023-05-01T11:21:11;100981.47;;;24.30;43.24
14117;BME280;7137;51.436;6.544;2023-05-01T11:24:13;100981.16;;;24.12;43.35
14117;BME280;7137;51.436;6.544;2023-05-01T11:27:16;100979.22;;;24.14;42.54
14117;BME280;7137;51.436;6.544;2023-05-01T11:30:18;100979.03;;;24.47;41.10
14117;BME280;7137;51.436;6.544;2023-05-01T11:33:22;100981.38;;;24.62;41.51
14117;BME280;7137;51.436;6.544;2023-05-01T11:36:27;100981.25;;;25.93;39.72
14117;BME280;7137;51.436;6.544;2023-05-01T11:39:29;100982.13;;;24.94;41.18
14117;BME280;7137;51.436;6.544;2023-05-01T11:42:31;100977.22;;;24.48;40.40
14117;BME280;7137;51.436;6.544;2023-05-01T11:45:33;100971.41;;;24.64;41.19
14117;BME280;7137;51.436;6.544;2023-05-01T11:48:35;100973.09;;;25.26;39.84
14117;BME280;7137;51.436;6.544;2023-05-01T11:51:38;100969.00;;;24.91;39.88
14117;BME280;7137;51.436;6.544;2023-05-01T11:54:46;100964.53;;;23.87;40.22
14117;BME280;7137;51.436;6.544;2023-05-01T11:57:49;100971.34;;;24.54;40.13
14117;BME280;7137;51.436;6.544;2023-05-01T12:00:51;100958.25;;;24.09;41.62
14117;BME280;7137;51.436;6.544;2023-05-01T12:03:52;100964.56;;;24.08;40.84
14117;BME280;7137;51.436;6.544;2023-05-01T12:06:55;100965.09;;;23.70;41.32
14117;BME280;7137;51.436;6.544;2023-05-01T12:09:57;100962.88;;;22.87;41.71
14117;BME280;7137;51.436;6.544;2023-05-01T12:12:59;100961.94;;;24.18;40.29
14117;BME280;7137;51.436;6.544;2023-05-01T12:16:01;100961.16;;;23.20;41.68
14117;BME280;7137;51.436;6.544;2023-05-01T12:19:04;100964.00;;;23.50;40.72
14117;BME280;7137;51.436;6.544;2023-05-01T12:22:07;100955.66;;;23.87;40.42
14117;BME280;7137;51.436;6.544;2023-05-01T12:25:09;100957.31;;;22.90;42.98
14117;BME280;7137;51.436;6.544;2023-05-01T12:28:12;100960.41;;;23.40;41.41
14117;BME280;7137;51.436;6.544;2023-05-01T12:31:14;100954.31;;;23.60;41.71
14117;BME280;7137;51.436;6.544;2023-05-01T12:34:16;100952.84;;;23.67;40.22
14117;BME280;7137;51.436;6.544;2023-05-01T12:37:18;100946.81;;;24.39;39.86
14117;BME280;7137;51.436;6.544;2023-05-01T12:40:20;100946.75;;;24.81;39.59
14117;BME280;7137;51.436;6.544;2023-05-01T12:43:29;100937.53;;;24.64;39.23
14117;BME280;7137;51.436;6.544;2023-05-01T12:46:31;100928.81;;;24.41;39.27
14117;BME280;7137;51.436;6.544;2023-05-01T12:49:34;100933.22;;;23.46;38.91
14117;BME280;7137;51.436;6.544;2023-05-01T12:52:37;100930.84;;;23.32;40.36
14117;BME280;7137;51.436;6.544;2023-05-01T12:55:44;100929.53;;;23.26;40.24
14117;BME280;7137;51.436;6.544;2023-05-01T12:58:46;100917.38;;;23.33;39.87
14117;BME280;7137;51.436;6.544;2023-05-01T13:01:55;100930.03;;;23.63;39.13
14117;BME280;7137;51.436;6.544;2023-05-01T13:05:08;100924.63;;;22.88;39.30
14117;BME280;7137;51.436;6.544;2023-05-01T13:08:11;100925.19;;;23.25;40.66
14117;BME280;7137;51.436;6.544;2023-05-01T13:11:14;100928.13;;;23.65;39.39
14117;BME280;7137;51.436;6.544;2023-05-01T13:14:16;100923.53;;;23.45;37.91
14117;BME280;7137;51.436;6.544;2023-05-01T13:17:22;100925.50;;;24.07;38.39
14117;BME280;7137;51.436;6.544;2023-05-01T13:20:25;100930.03;;;24.16;34.30
14117;BME280;7137;51.436;6.544;2023-05-01T13:23:29;100934.97;;;24.21;33.34
14117;BME280;7137;51.436;6.544;2023-05-01T13:26:31;100930.00;;;23.75;33.80
14117;BME280;7137;51.436;6.544;2023-05-01T13:29:35;100930.38;;;24.74;34.49
14117;BME280;7137;51.436;6.544;2023-05-01T13:32:38;100936.84;;;24.72;34.51
14117;BME280;7137;51.436;6.544;2023-05-01T13:35:41;100933.63;;;24.26;34.69
14117;BME280;7137;51.436;6.544;2023-05-01T13:38:45;100931.19;;;24.65;31.97
14117;BME280;7137;51.436;6.544;2023-05-01T13:41:49;100923.59;;;23.98;32.84
14117;BME280;7137;51.436;6.544;2023-05-01T13:44:53;100933.63;;;23.30;35.66
14117;BME280;7137;51.436;6.544;2023-05-01T13:47:55;100925.47;;;24.28;35.05
14117;BME280;7137;51.436;6.544;2023-05-01T13:50:57;100934.31;;;23.55;34.92
14117;BME280;7137;51.436;6.544;2023-05-01T13:54:01;100928.00;;;23.01;36.31
14117;BME280;7137;51.436;6.544;2023-05-01T13:57:03;100942.88;;;22.93;37.07
14117;BME280;7137;51.436;6.544;2023-05-01T14:00:06;100947.91;;;21.70;42.36
14117;BME280;7137;51.436;6.544;2023-05-01T14:03:09;100960.47;;;20.43;46.00
14117;BME280;7137;51.436;6.544;2023-05-01T14:06:12;100963.66;;;19.96;49.93
14117;BME280;7137;51.436;6.544;2023-05-01T14:09:16;100968.63;;;19.61;49.43
14117;BME280;7137;51.436;6.544;2023-05-01T14:12:19;100972.44;;;19.43;50.13
14117;BME280;7137;51.436;6.544;2023-05-01T14:15:24;100965.47;;;19.13;49.73
14117;BME280;7137;51.436;6.544;2023-05-01T14:18:27;100976.56;;;19.20;50.02
14117;BME280;7137;51.436;6.544;2023-05-01T14:21:29;100984.88;;;19.14;53.05
14117;BME280;7137;51.436;6.544;2023-05-01T14:24:34;100979.69;;;18.69;52.76
14117;BME280;7137;51.436;6.544;2023-05-01T14:27:36;100978.75;;;18.40;55.50
14117;BME280;7137;51.436;6.544;2023-05-01T14:30:39;100997.09;;;18.44;55.41
14117;BME280;7137;51.436;6.544;2023-05-01T14:33:41;100989.34;;;18.40;56.51
14117;BME280;7137;51.436;6.544;2023-05-01T14:36:43;101006.38;;;18.51;56.96
14117;BME280;7137;51.436;6.544;2023-05-01T14:39:45;101014.63;;;18.16;56.94
14117;BME280;7137;51.436;6.544;2023-05-01T14:42:47;101017.47;;;17.82;60.25
14117;BME280;7137;51.436;6.544;2023-05-01T14:45:48;101021.44;;;17.57;59.96
14117;BME280;7137;51.436;6.544;2023-05-01T14:48:50;101038.16;;;17.58;61.53
14117;BME280;7137;51.436;6.544;2023-05-01T14:51:52;101027.50;;;17.59;58.96
14117;BME280;7137;51.436;6.544;2023-05-01T14:54:55;101034.84;;;17.54;60.08
14117;BME280;7137;51.436;6.544;2023-05-01T14:57:58;101038.19;;;17.73;60.16
14117;BME280;7137;51.436;6.544;2023-05-01T15:01:00;101023.50;;;17.20;59.86
14117;BME280;7137;51.436;6.544;2023-05-01T15:04:02;101025.56;;;16.98;61.64
14117;BME280;7137;51.436;6.544;2023-05-01T15:07:05;101032.16;;;17.07;61.51
14117;BME280;7137;51.436;6.544;2023-05-01T15:10:09;101030.53;;;16.87;61.72
14117;BME280;7137;51.436;6.544;2023-05-01T15:13:11;101033.59;;;16.79;62.96
14117;BME280;7137;51.436;6.544;2023-05-01T15:16:12;101028.78;;;16.53;62.74
14117;BME280;7137;51.436;6.544;2023-05-01T15:19:14;101035.97;;;16.32;65.28
14117;BME280;7137;51.436;6.544;2023-05-01T15:22:15;101032.97;;;16.22;66.11
14117;BME280;7137;51.436;6.544;2023-05-01T15:25:18;101037.91;;;16.28;67.18
14117;BME280;7137;51.436;6.544;2023-05-01T15:28:20;101023.72;;;16.31;66.00
14117;BME280;7137;51.436;6.544;2023-05-01T15:31:23;101028.25;;;16.63;65.65
14117;BME280;7137;51.436;6.544;2023-05-01T15:34:24;101035.81;;;16.87;62.57
14117;BME280;7137;51.436;6.544;2023-05-01T15:37:26;101033.31;;;17.01;63.43
14117;BME280;7137;51.436;6.544;2023-05-01T15:40:29;101039.53;;;17.00;62.72
14117;BME280;7137;51.436;6.544;2023-05-01T15:43:31;101049.63;;;17.25;62.15
14117;BME280;7137;51.436;6.544;2023-05-01T15:46:32;101055.56;;;17.13;61.98
14117;BME280;7137;51.436;6.544;2023-05-01T15:49:34;101054.53;;;17.33;63.36
14117;BME280;7137;51.436;6.544;2023-05-01T15:52:35;101056.34;;;17.64;63.15
14117;BME280;7137;51.436;6.544;2023-05-01T15:55:38;101052.84;;;17.63;62.16
14117;BME280;7137;51.436;6.544;2023-05-01T15:58:40;101055.31;;;17.66;60.90
14117;BME280;7137;51.436;6.544;2023-05-01T16:01:41;101055.38;;;18.12;60.02
14117;BME280;7137;51.436;6.544;2023-05-01T16:04:44;101056.13;;;18.60;58.74
14117;BME280;7137;51.436;6.544;2023-05-01T16:07:48;101061.41;;;18.90;55.60
14117;BME280;7137;51.436;6.544;2023-05-01T16:10:54;101062.56;;;19.84;53.52
14117;BME280;7137;51.436;6.544;2023-05-01T16:13:57;101065.63;;;19.78;52.95
14117;BME280;7137;51.436;6.544;2023-05-01T16:16:59;101068.88;;;20.23;50.93
14117;BME280;7137;51.436;6.544;2023-05-01T16:20:01;101066.97;;;20.25;50.12